Eagle County Regional Airport Eagle US
ICAO: KEGE
IATA: EGE
Category: Medium
Scheduled Services: Yes

Elevation: 6548 ft
TransAlt. 18000 ft.

Airport Communications:
ATIS:135.575
AWOS 3:135.575
DENVER CNTR:128.65
CTAF:119.8
GND/CLNC DEL:121.8
EAGLES NEST:41.75
DENVER RDO:122.2
TWR:119.8

KEGE Zoom In..

Runways:

(A) RW 07 length 9000 ft width 150 ft
LOC 110.10 / hdg 69

(B) RW 25 length 9000 ft width 150 ft
LOC 110.10 / hdg 249

Location; KEGE
Day. 23 / Time. 14.56 Zulu
* Altimeter: 30.35
* Temperature: -12° c. -10.4°f.
* Wind from: 110° Speed 03 kn.
Dewpoint: -14° c.
Visibility: 10 Statute Miles.
Clouds: Clear (automated report).

KEGE 231456Z 11003KT 10SM CLR M12/M14 A3035 RMK AO2 SLP366 T11221144 53015


Wind From 110°
Speed 03 kn.

YouTube Music Video
 
jpsmedia.com for Web Design  worldairports.se 2018   terms of use